FJST,Max TemperatureF,Mean TemperatureF,Min TemperatureF,Max Dew PointF,MeanDew PointF,Min DewpointF,Max Humidity, Mean Humidity, Min Humidity, Max Sea Level PressureIn, Mean Sea Level PressureIn, Min Sea Level PressureIn, Max VisibilityMiles, Mean VisibilityMiles, Min VisibilityMiles, Max Wind SpeedMPH, Mean Wind SpeedMPH, Max Gust SpeedMPH,PrecipitationIn, CloudCover, Events, WindDirDegrees
2012-11-1,82,76,69,75,70,68,100,79,58,29.92,29.87,29.83,12,12,12,9,3,,0.00,5,,132
2012-11-2,83,75,67,73,70,68,100,78,56,29.91,29.87,29.83,12,12,12,12,2,,0.00,5,,84
2012-11-3,80,75,70,73,71,68,100,83,61,29.94,29.89,29.86,12,12,12,9,2,,0.00,6,,100
2012-11-4,84,78,71,75,72,70,100,83,62,29.96,29.91,29.86,12,12,12,9,2,,0.00,6,,119
2012-11-5,82,78,75,73,71,70,83,76,61,29.97,29.92,29.86,12,12,12,14,4,,0.00,6,Rain,115
2012-11-6,81,76,71,75,72,71,100,84,68,29.89,29.83,29.77,19,13,2,12,6,,0.51,7,Rain,100
2012-11-7,87,78,70,75,71,66,100,83,51,29.74,29.66,29.56,19,14,12,13,3,,0.12,5,Rain,267
2012-11-8,79,72,66,68,65,61,100,75,48,29.89,29.76,29.68,19,14,12,13,5,,0.08,5,Rain,194
2012-11-9,75,70,66,72,67,63,100,89,66,29.99,29.92,29.86,19,13,6,10,1,,0.28,6,Rain,121
2012-11-10,77,71,65,66,64,60,97,76,48,30.02,29.96,29.92,12,12,12,10,5,,0.04,5,Rain,130
2012-11-11,78,71,64,70,66,64,94,78,60,29.99,29.93,29.86,19,15,12,15,5,,0.04,5,Rain,101
2012-11-12,78,74,69,72,70,66,100,82,65,29.95,29.90,29.83,19,13,6,13,6,,0.39,6,Rain,98
2012-11-13,82,76,71,75,72,70,100,87,61,29.94,29.88,29.83,12,12,12,10,2,,0.02,6,Rain,95
2012-11-14,81,77,73,73,71,68,94,80,61,29.99,29.93,29.86,12,12,12,10,3,,0.00,6,Rain,124
2012-11-15,82,77,72,72,70,68,94,77,58,30.01,29.95,29.89,12,12,12,12,3,,0.00,6,,114
2012-11-16,80,76,73,74,73,70,94,82,72,29.98,29.94,29.89,12,12,12,12,4,,0.00,6,Rain,115
2012-11-17,81,78,76,77,74,73,95,86,74,29.95,29.92,29.86,19,11,6,20,11,,0.12,7,Rain,106
2012-11-18,84,80,75,77,76,73,100,89,67,29.98,29.92,29.89,19,14,12,21,7,,0.24,7,Rain,64
2012-11-19,85,78,72,77,75,72,100,87,65,29.98,29.93,29.89,19,11,2,20,6,,1.61,7,Rain,68
2012-11-20,86,80,75,79,76,74,100,87,69,29.96,29.91,29.86,19,12,9,12,4,,0.00,6,Rain,51
2012-11-21,86,80,75,81,77,75,100,92,71,29.95,29.84,29.77,12,9,6,14,3,,0.51,5,Rain,43
2012-11-22,87,80,73,79,76,73,100,87,66,29.84,29.76,29.68,19,13,12,13,3,,0.08,6,Rain,30
2012-11-23,86,80,75,79,77,75,100,90,74,29.80,29.71,29.65,12,12,12,12,3,,0.02,6,Rain,336
2012-11-24,84,79,74,77,75,73,100,89,64,29.89,29.80,29.74,19,10,0,8,1,,0.08,6,Fog-Rain,117
2012-11-25,84,80,75,75,74,72,100,88,68,29.92,29.86,29.83,19,14,12,12,2,,0.04,7,Rain,138
2012-11-26,82,78,74,75,72,68,100,78,54,29.95,29.89,29.83,12,12,12,14,4,,0.00,6,,113
2012-11-27,81,78,74,73,71,68,89,77,64,29.95,29.91,29.86,12,11,6,13,7,,0.02,6,Rain,111
2012-11-28,81,78,74,74,71,68,94,80,62,29.96,29.91,29.86,12,12,12,9,3,,0.00,6,Rain,97
2012-11-29,82,78,74,77,74,72,99,87,70,29.95,29.89,29.83,12,12,6,6,1,,0.03,7,Rain,115
2012-11-30,79,76,73,76,75,73,100,93,83,29.96,29.88,29.83,19,12,2,8,3,,0.98,7,Rain-Hail-Thunderstorm,114